FK-0026 weather

Speedwell Island Airport
Speedwell Island, Falkland Islands

Public forecast

Using degrees Celsius for public forecast. Weather courtesy of forecast.io.

METAR (pilot weather report)

Report is more than 6 hours old.

Closest report is Mount Pleasant Airport, 53.8 nm (99.6 km) ENE. Retrieved 2019/07/18 14:50 UTC (8 hours ago):

EGYP 181450Z 18022KT 9999 -RASN FEW005 BKN006 02/01 Q0986 YLO1

TAF (pilot weather forecast)

Closest forecast is Mount Pleasant Airport, 53.8 nm (99.6 km) ENE. Retrieved 2019/07/18 21:39 UTC (1 hour ago):

TAF TAF EGYP 181935Z 1821/1915 22025KT 9999 BKN010 BECMG 1821/1824 25018KT FEW010 BKN025 BECMG 1901/1904 35018G28KT 520003 TEMPO 1904/1915 36028G38KT 530003 PROB40 TEMPO 1904/1915 VRB08KT SCT007 560003 PROB30 TEMPO 1910/1914 34038G55KT